Time;durP1;ratioP1;P1;durP2;ratioP2;P2;SDS_P1;SDS_P2;PMS_P1;PMS_P2;Temp;Humidity;BMP_temperature;BMP_pressure;BME280_temperature;BME280_humidity;BME280_pressure;Samples;Min_cycle;Max_cycle;Signal;HPM_P1;HPM_P2
2022/04/09 00:00:17;;;;;;;;;;;;;;;17.56;60.06;97619.94;2087671;28;19997;-49
2022/04/09 00:01:18;;;;;;;;;;;;;;;17.57;60.23;97621.56;2087173;28;19955;-47
2022/04/09 00:02:21;;;;;;;;;;;;;;;17.59;60.16;97626.72;2091200;28;20390;-47
2022/04/09 00:03:22;;;;;;;;;;;;;;;17.60;60.02;97629.16;2086203;28;19995;-49
2022/04/09 00:04:23;;;;;;;;;;;;;;;17.61;60.05;97622.78;2087825;28;19924;-47
2022/04/09 00:05:24;;;;;;;;;;;;;;;17.62;60.01;97619.03;2088905;28;20278;-48
2022/04/09 00:06:25;;;;;;;;;;;;;;;17.63;59.98;97618.00;2091328;28;19996;-48
2022/04/09 00:07:26;;;;;;;;;;;;;;;17.64;60.04;97624.19;2087982;28;19924;-49
2022/04/09 00:08:27;;;;;;;;;;;;;;;17.65;60.06;97623.94;2086687;28;19925;-47
2022/04/09 00:09:28;;;;;;;;;;;;;;;17.66;59.91;97619.41;2086154;28;20629;-55
2022/04/09 00:10:29;;;;;;;;;;;;;;;17.69;59.90;97623.50;2087194;28;21733;-52
2022/04/09 00:11:30;;;;;;;;;;;;;;;17.70;59.91;97625.16;2087695;28;21292;-49
2022/04/09 00:12:31;;;;;;;;;;;;;;;17.70;59.87;97620.63;2086189;28;20264;-52
2022/04/09 00:13:32;;;;;;;;;;;;;;;17.71;59.97;97608.03;2084815;28;19974;-49
2022/04/09 00:14:33;;;;;;;;;;;;;;;17.71;59.96;97616.06;2086168;28;20015;-49
2022/04/09 00:15:34;;;;;;;;;;;;;;;17.72;59.93;97610.50;2085670;28;19928;-52
2022/04/09 00:16:35;;;;;;;;;;;;;;;17.72;59.87;97606.97;2086791;28;19924;-49
2022/04/09 00:17:38;;;;;;;;;;;;;;;17.75;59.77;97606.53;2085514;28;19928;-47
2022/04/09 00:18:43;;;;;;;;;;;;;;;17.75;59.81;97606.53;2085221;28;19928;-48
2022/04/09 00:19:44;;;;;;;;;;;;;;;17.76;59.83;97597.44;2083089;28;20010;-49
2022/04/09 00:20:45;;;;;;;;;;;;;;;17.77;59.85;97609.81;2085266;28;19928;-51
2022/04/09 00:21:47;;;;;;;;;;;;;;;17.78;59.76;97611.47;2087958;28;20430;-50
2022/04/09 00:22:47;;;;;;;;;;;;;;;17.77;59.92;97607.13;2085235;28;19924;-54
2022/04/09 00:23:49;;;;;;;;;;;;;;;17.78;60.04;97595.38;2085753;28;20021;-49
2022/04/09 00:24:50;;;;;;;;;;;;;;;17.78;59.94;97600.72;2083518;28;19935;-50
2022/04/09 00:25:51;;;;;;;;;;;;;;;17.80;59.90;97591.47;2082988;28;20019;-53
2022/04/09 00:26:52;;;;;;;;;;;;;;;17.79;59.92;97591.66;2085646;28;19928;-54
2022/04/09 00:27:54;;;;;;;;;;;;;;;17.81;59.88;97594.94;2086294;28;19942;-51
2022/04/09 00:28:54;;;;;;;;;;;;;;;17.81;59.84;97594.94;2088276;28;19924;-54
2022/04/09 00:29:56;;;;;;;;;;;;;;;17.82;59.99;97599.25;2083672;28;19934;-53
2022/04/09 00:30:57;;;;;;;;;;;;;;;17.82;59.89;97604.63;2084151;28;19927;-54
2022/04/09 00:31:58;;;;;;;;;;;;;;;17.83;59.78;97592.88;2086421;28;20398;-49
2022/04/09 00:33:01;;;;;;;;;;;;;;;17.82;59.84;97586.66;2086325;28;19924;-54
2022/04/09 00:34:04;;;;;;;;;;;;;;;17.82;59.93;97589.34;2088154;28;19999;-54
2022/04/09 00:35:05;;;;;;;;;;;;;;;17.85;59.81;97590.75;2086291;28;20011;-49
2022/04/09 00:36:07;;;;;;;;;;;;;;;17.84;59.82;97589.13;2088517;28;22947;-51
2022/04/09 00:37:07;;;;;;;;;;;;;;;17.84;59.68;97597.19;2087770;28;19925;-53
2022/04/09 00:38:09;;;;;;;;;;;;;;;17.84;59.78;97594.50;2086875;28;19928;-53
2022/04/09 00:39:10;;;;;;;;;;;;;;;17.84;59.68;97589.94;2089952;28;19924;-54
2022/04/09 00:40:12;;;;;;;;;;;;;;;17.85;59.80;97582.72;2089205;28;19925;-47
2022/04/09 00:41:13;;;;;;;;;;;;;;;17.83;59.72;97582.16;2089432;28;19932;-50
2022/04/09 00:42:15;;;;;;;;;;;;;;;17.84;59.71;97565.00;2090042;28;19967;-48
2022/04/09 00:43:16;;;;;;;;;;;;;;;17.84;59.83;97565.81;2087553;28;20011;-55
2022/04/09 00:44:17;;;;;;;;;;;;;;;17.84;59.75;97568.50;2087121;28;19928;-50
2022/04/09 00:45:18;;;;;;;;;;;;;;;17.84;59.94;97567.69;2086699;28;19921;-51
2022/04/09 00:46:20;;;;;;;;;;;;;;;17.85;59.84;97572.00;2090359;28;19932;-48
2022/04/09 00:47:20;;;;;;;;;;;;;;;17.83;59.75;97566.06;2085846;28;20023;-53
2022/04/09 00:48:24;;;;;;;;;;;;;;;17.84;59.75;97563.13;2088671;28;20037;-49
2022/04/09 00:49:24;;;;;;;;;;;;;;;17.85;59.66;97555.91;2085315;28;19974;-52
2022/04/09 00:50:26;;;;;;;;;;;;;;;17.85;59.75;97558.56;2089125;28;19994;-53
2022/04/09 00:51:26;;;;;;;;;;;;;;;17.83;59.83;97556.13;2086073;28;19929;-52
2022/04/09 00:52:28;;;;;;;;;;;;;;;17.84;59.82;97549.72;2087865;28;20024;-51
2022/04/09 00:53:33;;;;;;;;;;;;;;;17.84;59.62;97546.22;2087148;28;19935;-54
2022/04/09 00:54:36;;;;;;;;;;;;;;;17.85;59.74;97543.28;2088107;28;19920;-54
2022/04/09 00:56:54;;;;;;;;;;;;;;;17.85;59.62;97550.53;2077995;28;19975;-48
2022/04/09 00:57:55;;;;;;;;;;;;;;;17.85;59.76;97537.13;2087145;28;19932;-50
2022/04/09 00:58:57;;;;;;;;;;;;;;;17.83;59.68;97539.22;2091833;28;19920;-47
2022/04/09 00:59:58;;;;;;;;;;;;;;;17.84;59.72;97543.53;2088112;28;19928;-54
2022/04/09 01:01:01;;;;;;;;;;;;;;;17.82;59.75;97537.56;2089592;28;19931;-51
2022/04/09 01:02:01;;;;;;;;;;;;;;;17.82;59.84;97538.38;2089960;28;20451;-52
2022/04/09 01:03:04;;;;;;;;;;;;;;;17.82;59.77;97529.53;2086955;28;19925;-48
2022/04/09 01:04:08;;;;;;;;;;;;;;;17.82;59.81;97540.25;2091906;28;19970;-51
2022/04/09 01:05:09;;;;;;;;;;;;;;;17.82;59.84;97540.25;2087371;28;19921;-50
2022/04/09 01:06:12;;;;;;;;;;;;;;;17.80;59.71;97535.13;2089364;28;19924;-52
2022/04/09 01:07:13;;;;;;;;;;;;;;;17.81;59.81;97527.91;2090534;28;20406;-53
2022/04/09 01:08:15;;;;;;;;;;;;;;;17.80;59.88;97534.28;2088707;28;20556;-49
2022/04/09 01:09:16;;;;;;;;;;;;;;;17.82;59.67;97533.03;2086666;28;19928;-52
2022/04/09 01:10:17;;;;;;;;;;;;;;;17.81;59.81;97527.91;2087964;28;20106;-54
2022/04/09 01:11:18;;;;;;;;;;;;;;;17.79;59.93;97525.44;2089709;28;19943;-57
2022/04/09 01:12:19;;;;;;;;;;;;;;;17.80;59.73;97527.09;2083114;28;19925;-51
2022/04/09 01:13:20;;;;;;;;;;;;;;;17.80;59.84;97523.56;2084902;28;19967;-53
2022/04/09 01:14:22;;;;;;;;;;;;;;;17.78;59.78;97510.38;2088942;28;19928;-54
2022/04/09 01:15:22;;;;;;;;;;;;;;;17.77;59.77;97511.38;2087147;28;19932;-53
2022/04/09 01:16:28;;;;;;;;;;;;;;;17.78;59.94;97512.22;2083856;28;19924;-58
2022/04/09 01:17:29;;;;;;;;;;;;;;;17.79;59.87;97505.84;2081751;28;20564;-49
2022/04/09 01:18:31;;;;;;;;;;;;;;;17.78;59.71;97509.53;2086602;28;19940;-54
2022/04/09 01:19:33;;;;;;;;;;;;;;;17.76;59.82;97509.75;2090368;28;19924;-51
2022/04/09 01:20:34;;;;;;;;;;;;;;;17.76;59.83;97506.25;2087344;28;19950;-53
2022/04/09 01:21:35;;;;;;;;;;;;;;;17.76;59.96;97503.59;2086751;28;20410;-50
2022/04/09 01:22:38;;;;;;;;;;;;;;;17.76;59.94;97500.91;2086018;28;19929;-51
2022/04/09 01:23:39;;;;;;;;;;;;;;;17.75;59.90;97502.75;2090294;28;20567;-54
2022/04/09 01:24:40;;;;;;;;;;;;;;;17.76;59.87;97500.91;2089432;28;19921;-50
2022/04/09 01:25:41;;;;;;;;;;;;;;;17.75;59.72;97500.09;2087983;28;19925;-52
2022/04/09 01:26:43;;;;;;;;;;;;;;;17.75;59.90;97500.09;2088566;28;19927;-54
2022/04/09 01:27:46;;;;;;;;;;;;;;;17.74;59.81;97495.75;2086947;28;21114;-53
2022/04/09 01:28:48;;;;;;;;;;;;;;;17.72;59.95;97489.81;2085180;28;20414;-57
2022/04/09 01:29:49;;;;;;;;;;;;;;;17.74;59.97;97502.97;2077121;28;19928;-50
2022/04/09 01:30:51;;;;;;;;;;;;;;;17.75;59.88;97499.28;2085584;28;20958;-51
2022/04/09 01:31:51;;;;;;;;;;;;;;;17.71;59.86;97496.19;2083949;28;20544;-51
2022/04/09 01:32:53;;;;;;;;;;;;;;;17.72;59.72;97497.00;2088274;28;19921;-50
2022/04/09 01:33:54;;;;;;;;;;;;;;;17.71;59.93;97498.88;2084244;28;19975;-56
2022/04/09 01:34:55;;;;;;;;;;;;;;;17.71;59.84;97496.19;2087896;28;19921;-48
2022/04/09 01:35:56;;;;;;;;;;;;;;;17.71;59.87;97500.75;2085669;28;20015;-50
2022/04/09 01:36:57;;;;;;;;;;;;;;;17.72;59.85;97499.69;2089987;28;19924;-46
2022/04/09 01:37:59;;;;;;;;;;;;;;;17.71;59.64;97504.25;2085668;28;19935;-52
2022/04/09 01:39:01;;;;;;;;;;;;;;;17.71;59.88;97500.75;2088811;28;19974;-52
2022/04/09 01:40:01;;;;;;;;;;;;;;;17.72;59.83;97502.38;2089799;28;19920;-52
2022/04/09 01:41:03;;;;;;;;;;;;;;;17.71;59.64;97498.06;2088293;28;20947;-51
2022/04/09 01:42:05;;;;;;;;;;;;;;;17.69;60.04;97502.84;2088966;28;20653;-52
2022/04/09 01:43:07;;;;;;;;;;;;;;;17.69;59.90;97497.47;2088708;28;19972;-51
2022/04/09 01:44:08;;;;;;;;;;;;;;;17.68;59.78;97502.00;2087291;28;19973;-48
2022/04/09 01:45:10;;;;;;;;;;;;;;;17.68;59.98;97495.84;2088633;28;19929;-49
2022/04/09 01:46:11;;;;;;;;;;;;;;;17.68;59.76;97504.69;2083642;28;19921;-48
2022/04/09 01:47:12;;;;;;;;;;;;;;;17.65;59.91;97503.28;2082473;28;19935;-48
2022/04/09 01:48:13;;;;;;;;;;;;;;;17.67;60.01;97502.25;2083503;28;19931;-49
2022/04/09 01:49:14;;;;;;;;;;;;;;;17.67;59.93;97507.63;2088839;28;19920;-50
2022/04/09 01:50:15;;;;;;;;;;;;;;;17.64;59.99;97493.63;2086310;28;19924;-50
2022/04/09 01:51:16;;;;;;;;;;;;;;;17.63;60.08;97493.81;2086370;28;20682;-54
2022/04/09 01:52:17;;;;;;;;;;;;;;;17.65;60.08;97489.88;2087785;28;19924;-49
2022/04/09 01:53:19;;;;;;;;;;;;;;;17.67;59.79;97489.66;2088067;28;20023;-48
2022/04/09 01:54:21;;;;;;;;;;;;;;;17.63;59.89;97486.63;2085811;28;19982;-48
2022/04/09 01:55:22;;;;;;;;;;;;;;;17.65;59.75;97494.44;2089537;28;19945;-47
2022/04/09 01:56:23;;;;;;;;;;;;;;;17.63;59.88;97489.31;2089366;28;19921;-48
2022/04/09 01:57:24;;;;;;;;;;;;;;;17.62;59.91;97484.97;2088072;28;19924;-46
2022/04/09 01:58:25;;;;;;;;;;;;;;;17.62;59.88;97487.66;2088436;28;19936;-45
2022/04/09 01:59:26;;;;;;;;;;;;;;;17.62;60.01;97484.97;2084344;28;19928;-50
2022/04/09 02:00:28;;;;;;;;;;;;;;;17.61;59.87;97480.66;2087319;28;19927;-52
2022/04/09 02:01:28;;;;;;;;;;;;;;;17.61;59.95;97472.63;2084433;28;20015;-48
2022/04/09 02:02:30;;;;;;;;;;;;;;;17.61;59.94;97474.47;2084977;28;19936;-48
2022/04/09 02:03:31;;;;;;;;;;;;;;;17.60;59.94;97470.16;2085988;28;19921;-47
2022/04/09 02:04:33;;;;;;;;;;;;;;;17.61;60.03;97471.81;2090126;28;19924;-50
2022/04/09 02:05:34;;;;;;;;;;;;;;;17.60;59.90;97465.59;2090343;28;19974;-50
2022/04/09 02:06:36;;;;;;;;;;;;;;;17.60;59.98;97468.28;2086723;28;19928;-48
2022/04/09 02:07:36;;;;;;;;;;;;;;;17.60;59.92;97470.97;2078791;28;19928;-48
2022/04/09 02:08:39;;;;;;;;;;;;;;;17.60;59.86;97464.78;2085241;28;19986;-48
2022/04/09 02:09:40;;;;;;;;;;;;;;;17.57;59.92;97460.69;2086553;28;20306;-48
2022/04/09 02:10:42;;;;;;;;;;;;;;;17.57;59.96;97463.38;2089042;28;19920;-53
2022/04/09 02:11:42;;;;;;;;;;;;;;;17.58;60.03;97467.72;2088659;28;19925;-46
2022/04/09 02:12:47;;;;;;;;;;;;;;;17.57;60.08;97463.38;2078994;28;20409;-52
2022/04/09 02:13:48;;;;;;;;;;;;;;;17.57;59.94;97463.38;2079461;28;19929;-50
2022/04/09 02:14:50;;;;;;;;;;;;;;;17.57;59.97;97466.06;2086369;28;19927;-51
2022/04/09 02:15:50;;;;;;;;;;;;;;;17.56;59.96;97458.25;2086287;28;19939;-54
2022/04/09 02:16:52;;;;;;;;;;;;;;;17.55;60.04;97462.78;2085989;28;19925;-49
2022/04/09 02:17:52;;;;;;;;;;;;;;;17.56;60.00;97464.41;2084252;28;21049;-51
2022/04/09 02:18:54;;;;;;;;;;;;;;;17.56;59.96;97463.59;2085589;28;19931;-51
2022/04/09 02:19:55;;;;;;;;;;;;;;;17.54;59.76;97466.50;2086886;28;19920;-48
2022/04/09 02:20:56;;;;;;;;;;;;;;;17.53;59.98;97462.19;2086383;28;20451;-50
2022/04/09 02:21:57;;;;;;;;;;;;;;;17.53;59.80;97459.50;2088143;28;19920;-51
2022/04/09 02:22:58;;;;;;;;;;;;;;;17.53;59.92;97456.03;2078305;28;19929;-50
2022/04/09 02:24:00;;;;;;;;;;;;;;;17.53;59.91;97456.84;2085794;28;20450;-50
2022/04/09 02:25:02;;;;;;;;;;;;;;;17.52;60.02;97455.19;2083762;28;19966;-53
2022/04/09 02:26:04;;;;;;;;;;;;;;;17.50;59.98;97454.59;2084458;28;20004;-51
2022/04/09 02:27:04;;;;;;;;;;;;;;;17.51;60.00;97456.22;2086880;28;19920;-47
2022/04/09 02:28:06;;;;;;;;;;;;;;;17.50;59.98;97449.25;2089515;28;19986;-53
2022/04/09 02:29:06;;;;;;;;;;;;;;;17.50;59.96;97459.97;2082106;28;20203;-51
2022/04/09 02:30:09;;;;;;;;;;;;;;;17.49;59.89;97455.63;2083858;28;20459;-51
2022/04/09 02:31:09;;;;;;;;;;;;;;;17.50;60.09;97462.66;2082602;28;20008;-52
2022/04/09 02:32:11;;;;;;;;;;;;;;;17.47;60.01;97455.06;2086539;28;19921;-49
2022/04/09 02:33:12;;;;;;;;;;;;;;;17.48;60.11;97458.56;2087819;28;20861;-50
2022/04/09 02:34:14;;;;;;;;;;;;;;;17.47;59.94;97456.91;2082286;28;20011;-50
2022/04/09 02:35:14;;;;;;;;;;;;;;;17.47;60.05;97454.22;2084289;28;19924;-50
2022/04/09 02:36:16;;;;;;;;;;;;;;;17.46;60.08;97453.41;2087909;28;19964;-52
2022/04/09 02:37:16;;;;;;;;;;;;;;;17.46;60.09;97453.41;2088266;28;19989;-51
2022/04/09 02:38:18;;;;;;;;;;;;;;;17.46;60.02;97457.94;2082261;28;21079;-49
2022/04/09 02:39:21;;;;;;;;;;;;;;;17.45;59.85;97451.78;2087228;28;19932;-48
2022/04/09 02:40:23;;;;;;;;;;;;;;;17.45;59.96;97454.47;2088793;28;19935;-51
2022/04/09 02:41:24;;;;;;;;;;;;;;;17.44;59.96;97460.88;2085629;28;19927;-52
2022/04/09 02:42:25;;;;;;;;;;;;;;;17.44;59.97;97458.19;2089829;28;19991;-48
2022/04/09 02:43:26;;;;;;;;;;;;;;;17.44;60.02;97455.50;2089219;28;20007;-54
2022/04/09 02:44:28;;;;;;;;;;;;;;;17.42;60.14;97455.72;2089042;28;19924;-51
2022/04/09 02:45:28;;;;;;;;;;;;;;;17.42;60.03;97461.09;2088326;28;19982;-51
2022/04/09 02:46:30;;;;;;;;;;;;;;;17.43;59.93;97465.38;2085590;28;20001;-48
2022/04/09 02:47:31;;;;;;;;;;;;;;;17.43;59.98;97464.56;2085733;28;19924;-49
2022/04/09 02:48:32;;;;;;;;;;;;;;;17.40;60.04;97470.38;2085700;28;19920;-50
2022/04/09 02:49:33;;;;;;;;;;;;;;;17.41;59.96;97463.97;2085900;28;20573;-51
2022/04/09 02:50:34;;;;;;;;;;;;;;;17.41;60.05;97461.28;2089414;28;19993;-46
2022/04/09 02:51:35;;;;;;;;;;;;;;;17.41;59.98;97455.94;2087127;28;19997;-54
2022/04/09 02:52:36;;;;;;;;;;;;;;;17.41;60.15;97466.66;2086088;28;20326;-51
2022/04/09 02:53:37;;;;;;;;;;;;;;;17.39;59.92;97468.75;2083855;28;19939;-53
2022/04/09 02:54:40;;;;;;;;;;;;;;;17.40;60.03;97478.44;2085522;28;19927;-50
2022/04/09 02:55:40;;;;;;;;;;;;;;;17.38;60.11;97475.16;2081845;28;20531;-50
2022/04/09 02:56:43;;;;;;;;;;;;;;;17.38;60.10;97477.81;2083845;28;19930;-53
2022/04/09 02:57:44;;;;;;;;;;;;;;;17.38;60.00;97480.50;2086627;28;19924;-49
2022/04/09 02:58:45;;;;;;;;;;;;;;;17.37;60.01;97481.56;2086764;28;20022;-49
2022/04/09 02:59:46;;;;;;;;;;;;;;;17.37;60.12;97476.19;2081676;28;19929;-49
2022/04/09 03:00:47;;;;;;;;;;;;;;;17.36;60.05;97483.44;2085858;28;19934;-51
2022/04/09 03:01:49;;;;;;;;;;;;;;;17.35;59.85;97483.63;2084669;28;20377;-50
2022/04/09 03:02:49;;;;;;;;;;;;;;;17.35;60.00;97479.09;2076066;28;19928;-49
2022/04/09 03:03:51;;;;;;;;;;;;;;;17.34;60.08;97474.78;2085132;28;19935;-51
2022/04/09 03:04:52;;;;;;;;;;;;;;;17.35;59.99;97481.75;2080908;28;20836;-52
2022/04/09 03:05:53;;;;;;;;;;;;;;;17.35;60.20;97489.00;2086245;28;19927;-47
2022/04/09 03:06:54;;;;;;;;;;;;;;;17.33;60.05;97480.38;2085228;28;20425;-52
2022/04/09 03:07:57;;;;;;;;;;;;;;;17.34;60.13;97479.31;2086266;28;19921;-49
2022/04/09 03:08:57;;;;;;;;;;;;;;;17.33;60.07;97466.97;2081881;28;20925;-51
2022/04/09 03:10:00;;;;;;;;;;;;;;;17.33;60.13;97475.03;2087770;28;19928;-49
2022/04/09 03:11:01;;;;;;;;;;;;;;;17.32;60.02;97465.31;2086502;28;20015;-50
2022/04/09 03:12:02;;;;;;;;;;;;;;;17.32;60.07;97462.66;2085737;28;19928;-49
2022/04/09 03:13:04;;;;;;;;;;;;;;;17.31;59.97;97459.16;2084940;28;19924;-48
2022/04/09 03:14:05;;;;;;;;;;;;;;;17.31;60.08;97458.34;2086223;28;20386;-49
2022/04/09 03:15:06;;;;;;;;;;;;;;;17.30;60.10;97451.31;2085475;28;19988;-52
2022/04/09 03:16:08;;;;;;;;;;;;;;;17.31;59.91;97448.44;2085888;28;19928;-51
2022/04/09 03:17:09;;;;;;;;;;;;;;;17.29;60.07;97447.00;2088270;28;20503;-52
2022/04/09 03:18:11;;;;;;;;;;;;;;;17.28;60.20;97445.38;2085067;28;20009;-50
2022/04/09 03:19:12;;;;;;;;;;;;;;;17.29;60.13;97452.38;2085445;28;19927;-51
2022/04/09 03:20:13;;;;;;;;;;;;;;;17.28;60.18;97446.19;2084989;28;20019;-51
2022/04/09 03:21:15;;;;;;;;;;;;;;;17.27;60.12;97449.09;2084765;28;19986;-51
2022/04/09 03:22:15;;;;;;;;;;;;;;;17.26;60.08;97450.16;2085292;28;19977;-48
2022/04/09 03:23:17;;;;;;;;;;;;;;;17.26;60.26;97447.47;2085833;28;20408;-52
2022/04/09 03:24:17;;;;;;;;;;;;;;;17.26;60.08;97447.47;2078343;28;19932;-49
2022/04/09 03:25:20;;;;;;;;;;;;;;;17.26;60.05;97452.81;2088170;28;19928;-50
2022/04/09 03:26:22;;;;;;;;;;;;;;;17.25;60.14;97443.16;2084778;28;19928;-52
2022/04/09 03:27:22;;;;;;;;;;;;;;;17.26;60.21;97447.47;2088839;28;19951;-51
2022/04/09 03:28:24;;;;;;;;;;;;;;;17.24;60.04;97447.69;2084773;28;19950;-49
2022/04/09 03:29:25;;;;;;;;;;;;;;;17.23;60.17;97437.19;2091810;28;19931;-51
2022/04/09 03:30:26;;;;;;;;;;;;;;;17.25;60.27;97437.81;2082049;28;19928;-53
2022/04/09 03:31:27;;;;;;;;;;;;;;;17.24;60.07;97436.16;2086964;28;19970;-52
2022/04/09 03:32:28;;;;;;;;;;;;;;;17.24;60.29;97441.50;2085162;28;20926;-51
2022/04/09 03:33:29;;;;;;;;;;;;;;;17.23;60.30;97439.88;2087924;28;19950;-54
2022/04/09 03:34:30;;;;;;;;;;;;;;;17.23;60.20;97448.72;2086841;28;19995;-51
2022/04/09 03:35:31;;;;;;;;;;;;;;;17.22;60.24;97441.75;2087569;28;19924;-49
2022/04/09 03:36:33;;;;;;;;;;;;;;;17.22;60.11;97446.25;2085710;28;20271;-51
2022/04/09 03:37:34;;;;;;;;;;;;;;;17.21;60.18;97450.81;2086412;28;19928;-50
2022/04/09 03:38:35;;;;;;;;;;;;;;;17.19;60.07;97445.69;2082105;28;20530;-46
2022/04/09 03:39:36;;;;;;;;;;;;;;;17.20;60.20;97450.00;2087340;28;20016;-49
2022/04/09 03:40:40;;;;;;;;;;;;;;;17.18;60.15;97444.03;2083067;28;19932;-48
2022/04/09 03:41:40;;;;;;;;;;;;;;;17.18;60.31;97430.63;2085431;28;19932;-49
2022/04/09 03:42:42;;;;;;;;;;;;;;;17.19;60.37;97439.50;2081133;28;19928;-52
2022/04/09 03:43:42;;;;;;;;;;;;;;;17.17;60.26;97442.41;2083793;28;20520;-49
2022/04/09 03:44:44;;;;;;;;;;;;;;;17.17;60.17;97442.41;2079338;28;19929;-48
2022/04/09 03:45:44;;;;;;;;;;;;;;;17.16;60.24;97443.44;2091053;28;20090;-50
2022/04/09 03:46:46;;;;;;;;;;;;;;;17.15;60.29;97449.84;2084087;28;19932;-50
2022/04/09 03:47:46;;;;;;;;;;;;;;;17.16;60.15;97445.28;2090977;28;19952;-52
2022/04/09 03:48:48;;;;;;;;;;;;;;;17.17;60.25;97441.59;2088074;28;19935;-50
2022/04/09 03:49:49;;;;;;;;;;;;;;;17.16;60.25;97437.25;2084522;28;19928;-51
2022/04/09 03:50:51;;;;;;;;;;;;;;;17.16;60.21;97445.28;2091913;28;19920;-48
2022/04/09 03:51:51;;;;;;;;;;;;;;;17.15;60.26;97447.16;2089759;28;19921;-52
2022/04/09 03:52:53;;;;;;;;;;;;;;;17.15;60.29;97447.16;2087529;28;19920;-52
2022/04/09 03:53:53;;;;;;;;;;;;;;;17.13;60.29;97443.91;2087694;28;19932;-48
2022/04/09 03:54:55;;;;;;;;;;;;;;;17.13;60.24;97446.59;2084804;28;19920;-49
2022/04/09 03:55:57;;;;;;;;;;;;;;;17.13;60.37;97449.25;2085255;28;19928;-50
2022/04/09 03:56:59;;;;;;;;;;;;;;;17.13;60.30;97438.53;2084386;28;19939;-51
2022/04/09 03:57:59;;;;;;;;;;;;;;;17.11;60.38;97440.63;2085615;28;20617;-52
2022/04/09 03:59:01;;;;;;;;;;;;;;;17.11;60.36;97435.25;2082614;28;19931;-50
2022/04/09 04:00:01;;;;;;;;;;;;;;;17.12;60.35;97438.75;2084833;28;19925;-53
2022/04/09 04:01:03;;;;;;;;;;;;;;;17.12;60.37;97436.88;2087821;28;19924;-50
2022/04/09 04:02:03;;;;;;;;;;;;;;;17.12;60.29;97433.41;2084779;28;19924;-50
2022/04/09 04:03:07;;;;;;;;;;;;;;;17.10;60.23;97428.25;2084813;28;19920;-49
2022/04/09 04:04:08;;;;;;;;;;;;;;;17.08;60.42;97427.66;2085751;28;20428;-52
2022/04/09 04:05:10;;;;;;;;;;;;;;;17.08;60.30;97425.00;2085230;28;19920;-52
2022/04/09 04:06:11;;;;;;;;;;;;;;;17.08;60.29;97430.34;2082877;28;19989;-48
2022/04/09 04:07:13;;;;;;;;;;;;;;;17.08;60.16;97422.31;2082277;28;19936;-49
2022/04/09 04:08:13;;;;;;;;;;;;;;;17.09;60.17;97421.25;2086951;28;20420;-49
2022/04/09 04:09:16;;;;;;;;;;;;;;;17.11;60.25;97421.06;2088066;28;19978;-52
2022/04/09 04:10:17;;;;;;;;;;;;;;;17.12;60.11;97420.81;2085260;28;19936;-48
2022/04/09 04:11:20;;;;;;;;;;;;;;;17.15;60.20;97422.22;2086444;28;20776;-52
2022/04/09 04:12:20;;;;;;;;;;;;;;;17.18;60.14;97419.91;2083729;28;19928;-54
2022/04/09 04:13:22;;;;;;;;;;;;;;;17.24;60.10;97417.38;2088216;28;19955;-48
2022/04/09 04:14:23;;;;;;;;;;;;;;;17.27;60.01;97407.03;2088617;28;19946;-52
2022/04/09 04:15:25;;;;;;;;;;;;;;;17.32;59.98;97411.72;2086601;28;19920;-49
2022/04/09 04:16:25;;;;;;;;;;;;;;;17.35;59.89;97403.22;2086629;28;19924;-52
2022/04/09 04:17:27;;;;;;;;;;;;;;;17.37;59.74;97401.16;2084078;28;20394;-51
2022/04/09 04:18:28;;;;;;;;;;;;;;;17.40;59.90;97404.19;2084781;28;19928;-50
2022/04/09 04:19:29;;;;;;;;;;;;;;;17.42;59.91;97395.94;2085368;28;20018;-50
2022/04/09 04:20:30;;;;;;;;;;;;;;;17.46;59.82;97396.28;2083672;28;19934;-52
2022/04/09 04:21:31;;;;;;;;;;;;;;;17.47;59.81;97397.91;2086046;28;20381;-51
2022/04/09 04:22:32;;;;;;;;;;;;;;;17.50;59.78;97394.81;2086057;28;19925;-56
2022/04/09 04:23:33;;;;;;;;;;;;;;;17.52;59.72;97393.50;2087728;28;19924;-53
2022/04/09 04:24:37;;;;;;;;;;;;;;;17.56;59.73;97399.25;2083590;28;19951;-52
2022/04/09 04:25:38;;;;;;;;;;;;;;;17.58;59.73;97392.63;2085350;28;19928;-54
2022/04/09 04:26:40;;;;;;;;;;;;;;;17.60;59.62;97393.19;2084931;28;19921;-53
2022/04/09 04:27:43;;;;;;;;;;;;;;;17.62;59.85;97393.00;2088600;28;19924;-54
2022/04/09 04:28:48;;;;;;;;;;;;;;;17.64;59.71;97391.72;2085452;28;19936;-53
2022/04/09 04:29:49;;;;;;;;;;;;;;;17.67;59.58;97395.00;2085505;28;19976;-52
2022/04/09 04:30:50;;;;;;;;;;;;;;;17.69;59.60;97393.72;2086513;28;20390;-53
2022/04/09 04:31:51;;;;;;;;;;;;;;;17.70;59.67;97399.91;2085519;28;19932;-54
2022/04/09 04:32:52;;;;;;;;;;;;;;;17.72;59.64;97403.16;2084255;28;19927;-50
2022/04/09 04:33:54;;;;;;;;;;;;;;;17.72;59.56;97392.44;2087132;28;19924;-51
2022/04/09 04:34:54;;;;;;;;;;;;;;;17.74;59.72;97390.34;2083983;28;20529;-52
2022/04/09 04:35:56;;;;;;;;;;;;;;;17.77;59.63;97389.88;2084023;28;19925;-48
2022/04/09 04:36:56;;;;;;;;;;;;;;;17.79;59.51;97388.66;2085516;28;19924;-52
2022/04/09 04:37:58;;;;;;;;;;;;;;;17.81;59.53;97386.56;2083781;28;19965;-52
2022/04/09 04:38:58;;;;;;;;;;;;;;;17.82;59.62;97392.75;2086179;28;19932;-55
2022/04/09 04:40:00;;;;;;;;;;;;;;;17.84;59.62;97396.00;2081203;28;19928;-46
2022/04/09 04:41:04;;;;;;;;;;;;;;;17.85;59.42;97397.63;2084942;28;19933;-55
2022/04/09 04:42:07;;;;;;;;;;;;;;;17.86;59.35;97399.28;2089187;28;19920;-51
2022/04/09 04:43:08;;;;;;;;;;;;;;;17.87;59.50;97398.25;2087190;28;19936;-48
2022/04/09 04:44:10;;;;;;;;;;;;;;;17.88;59.58;97405.22;2083657;28;19934;-51
2022/04/09 04:45:11;;;;;;;;;;;;;;;17.89;59.53;97404.19;2085744;28;20057;-54
2022/04/09 04:46:13;;;;;;;;;;;;;;;17.89;59.55;97404.19;2089855;28;20699;-47
2022/04/09 04:47:13;;;;;;;;;;;;;;;17.89;59.38;97404.19;2083485;28;20291;-47
2022/04/09 04:48:15;;;;;;;;;;;;;;;17.91;59.49;97403.94;2084306;28;19921;-51
2022/04/09 04:49:15;;;;;;;;;;;;;;;17.93;59.54;97407.25;2082710;28;19929;-44
2022/04/09 04:50:18;;;;;;;;;;;;;;;17.94;59.37;97400.81;2080808;28;19924;-49
2022/04/09 04:51:19;;;;;;;;;;;;;;;17.95;59.48;97410.50;2085622;28;20401;-45
2022/04/09 04:52:20;;;;;;;;;;;;;;;17.98;59.29;97407.38;2086179;28;20023;-51
2022/04/09 04:53:21;;;;;;;;;;;;;;;17.97;59.48;97406.56;2084865;28;19924;-51
2022/04/09 04:54:22;;;;;;;;;;;;;;;17.98;59.37;97410.06;2086980;28;19978;-47
2022/04/09 04:55:23;;;;;;;;;;;;;;;17.98;59.53;97408.19;2083088;28;19921;-53
2022/04/09 04:56:25;;;;;;;;;;;;;;;18.02;59.63;97408.53;2086688;28;19931;-46
2022/04/09 04:57:27;;;;;;;;;;;;;;;18.03;59.40;97418.25;2085966;28;20022;-55
2022/04/09 04:58:28;;;;;;;;;;;;;;;18.04;59.27;97417.19;2087682;28;19921;-48
2022/04/09 04:59:29;;;;;;;;;;;;;;;18.06;59.47;97423.16;2081042;28;20014;-52
2022/04/09 05:00:31;;;;;;;;;;;;;;;18.07;59.15;97427.44;2086649;28;20390;-53
2022/04/09 05:01:33;;;;;;;;;;;;;;;18.07;59.21;97425.59;2083552;28;19935;-53
2022/04/09 05:02:35;;;;;;;;;;;;;;;18.07;59.38;97428.25;2084930;28;19932;-50
2022/04/09 05:03:39;;;;;;;;;;;;;;;18.08;59.40;97424.56;2084154;28;19921;-51
2022/04/09 05:04:40;;;;;;;;;;;;;;;18.10;59.35;97427.00;2086034;28;21063;-49
2022/04/09 05:05:42;;;;;;;;;;;;;;;18.10;59.46;97429.66;2086867;28;19931;-52
2022/04/09 05:06:43;;;;;;;;;;;;;;;18.11;59.20;97428.66;2087909;28;20072;-51
2022/04/09 05:07:45;;;;;;;;;;;;;;;18.15;59.28;97434.38;2083646;28;20422;-48
2022/04/09 05:08:46;;;;;;;;;;;;;;;18.14;59.21;97430.88;2084561;28;19931;-55
2022/04/09 05:09:47;;;;;;;;;;;;;;;18.15;59.29;97429.00;2084503;28;20289;-52
2022/04/09 05:10:48;;;;;;;;;;;;;;;18.15;59.20;97431.69;2085228;28;19924;-55
2022/04/09 05:11:49;;;;;;;;;;;;;;;18.17;59.43;97437.66;2085714;28;19928;-51
2022/04/09 05:12:54;;;;;;;;;;;;;;;18.17;59.43;97441.13;2083570;28;20019;-54
2022/04/09 05:13:54;;;;;;;;;;;;;;;18.18;59.16;97433.91;2086262;28;20286;-53
2022/04/09 05:14:56;;;;;;;;;;;;;;;18.19;59.34;97430.16;2085941;28;19955;-50
2022/04/09 05:15:58;;;;;;;;;;;;;;;18.19;59.38;97440.91;2085640;28;19935;-49
2022/04/09 05:17:00;;;;;;;;;;;;;;;18.18;59.33;97433.91;2088328;28;21027;-51
2022/04/09 05:18:01;;;;;;;;;;;;;;;18.20;59.26;97427.25;2085321;28;19921;-53
2022/04/09 05:19:03;;;;;;;;;;;;;;;18.22;59.29;97437.75;2083841;28;19958;-49
2022/04/09 05:20:05;;;;;;;;;;;;;;;18.21;59.35;97439.63;2081916;28;19921;-52
2022/04/09 05:21:06;;;;;;;;;;;;;;;18.21;59.33;97433.44;2084867;28;19931;-48